createdAt,value
2023-02-09T00:02:14.287Z,36.20
2023-02-09T00:04:41.079Z,27.23
2023-02-09T00:07:07.667Z,26.03
2023-02-09T00:09:34.226Z,31.33
2023-02-09T00:12:19.320Z,31.10
2023-02-09T00:14:45.855Z,32.27
2023-02-09T00:17:12.919Z,33.07
2023-02-09T00:19:39.537Z,30.93
2023-02-09T00:22:06.071Z,32.87
2023-02-09T00:24:32.674Z,28.40
2023-02-09T00:26:59.229Z,25.43
2023-02-09T00:29:25.782Z,26.20
2023-02-09T00:31:52.510Z,30.17
2023-02-09T00:34:19.655Z,25.00
2023-02-09T00:36:46.573Z,23.37
2023-02-09T00:39:13.388Z,25.93
2023-02-09T00:41:58.560Z,26.03
2023-02-09T00:44:25.201Z,27.70
2023-02-09T00:46:52.202Z,24.47
2023-02-09T00:49:19.231Z,24.50
2023-02-09T00:51:46.497Z,33.53
2023-02-09T00:54:13.946Z,25.53
2023-02-09T00:56:40.744Z,25.77
2023-02-09T00:59:07.313Z,25.97
2023-02-09T01:01:34.037Z,30.97
2023-02-09T01:04:00.642Z,25.53
2023-02-09T01:06:27.271Z,23.70
2023-02-09T01:08:54.116Z,27.80
2023-02-09T01:11:21.138Z,23.40
2023-02-09T01:13:47.725Z,21.97
2023-02-09T01:16:17.630Z,25.20
2023-02-09T01:18:44.676Z,22.57
2023-02-09T01:21:17.084Z,26.70
2023-02-09T01:23:44.170Z,24.60
2023-02-09T01:26:12.150Z,26.90
2023-02-09T01:28:39.208Z,24.00
2023-02-09T01:31:07.324Z,28.80
2023-02-09T01:33:33.923Z,28.03
2023-02-09T01:36:04.596Z,24.17
2023-02-09T01:38:31.805Z,22.27
2023-02-09T01:40:58.361Z,23.43
2023-02-09T01:43:24.867Z,25.40
2023-02-09T01:45:54.683Z,26.83
2023-02-09T01:48:28.350Z,24.67
2023-02-09T01:50:58.925Z,26.43
2023-02-09T01:53:27.389Z,25.13
2023-02-09T01:56:01.133Z,23.17
2023-02-09T01:58:28.566Z,27.10
2023-02-09T02:00:55.186Z,28.93
2023-02-09T02:03:25.328Z,24.37
2023-02-09T02:05:56.354Z,26.27
2023-02-09T02:08:53.540Z,27.33
2023-02-09T02:11:22.093Z,27.27
2023-02-09T02:13:48.969Z,20.42
2023-02-09T02:16:33.499Z,25.20
2023-02-09T02:19:06.199Z,25.63
2023-02-09T02:21:44.661Z,26.83
2023-02-09T02:24:23.212Z,26.20
2023-02-09T02:27:02.349Z,29.25
2023-02-09T02:30:14.339Z,24.00
2023-02-09T02:32:52.894Z,25.53
2023-02-09T02:35:38.813Z,21.58
2023-02-09T02:38:11.900Z,27.27
2023-02-09T02:41:00.493Z,28.50
2023-02-09T02:43:42.005Z,26.60
2023-02-09T02:46:26.398Z,25.53
2023-02-09T02:48:57.065Z,27.90
2023-02-09T02:51:31.667Z,25.47
2023-02-09T02:54:02.628Z,31.10
2023-02-09T02:56:36.902Z,27.20
2023-02-09T02:59:07.052Z,29.27
2023-02-09T03:01:40.773Z,25.73
2023-02-09T03:04:08.739Z,27.57
2023-02-09T03:06:37.446Z,23.93
2023-02-09T03:09:04.222Z,27.63
2023-02-09T03:11:37.551Z,24.27
2023-02-09T03:14:31.450Z,31.37
2023-02-09T03:17:21.076Z,25.27
2023-02-09T03:20:10.945Z,26.17
2023-02-09T03:22:50.414Z,35.13
2023-02-09T03:25:31.408Z,26.30
2023-02-09T03:27:57.977Z,27.37
2023-02-09T03:30:25.020Z,28.40
2023-02-09T03:32:56.094Z,29.03
2023-02-09T03:35:26.239Z,32.33
2023-02-09T03:37:53.031Z,26.00
2023-02-09T03:40:19.748Z,26.50
2023-02-09T03:42:46.330Z,26.23
2023-02-09T03:45:13.004Z,30.07
2023-02-09T03:47:39.605Z,26.43
2023-02-09T03:50:07.426Z,31.97
2023-02-09T03:52:34.143Z,25.57
2023-02-09T03:55:01.563Z,26.97
2023-02-09T03:57:28.249Z,27.27
2023-02-09T03:59:54.774Z,28.27
2023-02-09T04:02:21.394Z,30.43
2023-02-09T04:04:47.906Z,27.43
2023-02-09T04:07:14.546Z,26.17
2023-02-09T04:09:41.115Z,27.53
2023-02-09T04:12:07.752Z,29.63
2023-02-09T04:14:34.334Z,30.40
2023-02-09T04:17:00.895Z,25.97
2023-02-09T04:19:27.612Z,29.30
2023-02-09T04:21:54.169Z,24.47
2023-02-09T04:24:21.687Z,28.60
2023-02-09T04:26:48.387Z,29.30
2023-02-09T04:29:14.977Z,29.07
2023-02-09T04:31:41.621Z,31.63
2023-02-09T04:34:08.358Z,26.10
2023-02-09T04:36:34.908Z,30.77
2023-02-09T04:39:01.561Z,32.50
2023-02-09T04:41:28.099Z,29.17
2023-02-09T04:43:55.890Z,28.40
2023-02-09T04:46:22.502Z,26.67
2023-02-09T04:48:49.295Z,34.20
2023-02-09T04:51:16.007Z,27.97
2023-02-09T04:53:42.611Z,26.40
2023-02-09T04:56:13.338Z,26.97
2023-02-09T04:59:00.012Z,30.20
2023-02-09T05:01:26.974Z,30.07
2023-02-09T05:03:53.681Z,26.67
2023-02-09T05:06:20.836Z,24.23
2023-02-09T05:08:48.553Z,26.40
2023-02-09T05:11:15.406Z,26.77
2023-02-09T05:13:42.485Z,25.70
2023-02-09T05:16:12.286Z,28.20
2023-02-09T05:18:38.868Z,30.13
2023-02-09T05:21:05.548Z,28.53
2023-02-09T05:23:32.513Z,27.03
2023-02-09T05:25:59.119Z,35.00
2023-02-09T05:28:26.086Z,30.13
2023-02-09T05:30:53.887Z,30.57
2023-02-09T05:33:25.015Z,27.60
2023-02-09T05:35:53.146Z,28.27
2023-02-09T05:38:19.953Z,28.90
2023-02-09T05:40:47.057Z,30.57
2023-02-09T05:43:13.723Z,29.73
2023-02-09T05:45:40.359Z,27.13
2023-02-09T05:48:07.092Z,27.37
2023-02-09T05:50:35.533Z,26.90
2023-02-09T05:53:02.098Z,25.30
2023-02-09T05:55:28.723Z,29.80
2023-02-09T05:57:55.346Z,25.33
2023-02-09T06:00:23.648Z,29.60
2023-02-09T06:02:50.327Z,23.85
2023-02-09T06:05:17.040Z,33.53
2023-02-09T06:07:43.568Z,29.23
2023-02-09T06:10:10.384Z,34.17
2023-02-09T06:12:37.035Z,30.30
2023-02-09T06:15:03.941Z,27.67
2023-02-09T06:17:30.562Z,31.87
2023-02-09T06:19:57.070Z,28.27
2023-02-09T06:22:23.614Z,32.80
2023-02-09T06:24:50.260Z,30.23
2023-02-09T06:27:16.819Z,29.87
2023-02-09T06:29:43.616Z,28.90
2023-02-09T06:32:10.214Z,30.83
2023-02-09T06:34:37.039Z,30.57
2023-02-09T06:37:03.586Z,34.67
2023-02-09T06:39:30.254Z,32.80
2023-02-09T06:41:56.886Z,30.03
2023-02-09T06:44:23.449Z,30.57
2023-02-09T06:46:50.083Z,32.73
2023-02-09T06:49:16.724Z,27.80
2023-02-09T06:51:43.444Z,30.13
2023-02-09T06:54:10.110Z,31.17
2023-02-09T06:56:37.018Z,29.00
2023-02-09T06:59:03.526Z,27.93
2023-02-09T07:01:30.267Z,32.27
2023-02-09T07:03:56.850Z,28.87
2023-02-09T07:06:23.764Z,28.37
2023-02-09T07:08:50.631Z,29.93
2023-02-09T07:11:18.977Z,32.23
2023-02-09T07:13:46.546Z,304.20
2023-02-09T07:16:14.283Z,174.23
2023-02-09T07:18:41.222Z,66.37
2023-02-09T07:21:10.859Z,56.63
2023-02-09T07:23:38.102Z,41.77
2023-02-09T07:26:13.098Z,33.17
2023-02-09T07:28:39.764Z,36.40
2023-02-09T07:31:09.038Z,33.17
2023-02-09T07:33:37.018Z,32.50
2023-02-09T07:36:06.042Z,27.63
2023-02-09T07:41:04.744Z,30.30
2023-02-09T07:43:31.922Z,29.40
2023-02-09T07:46:04.076Z,28.40
2023-02-09T07:48:31.583Z,30.13
2023-02-09T07:50:58.503Z,29.58
2023-02-09T07:53:25.828Z,34.20
2023-02-09T07:55:52.744Z,32.78
2023-02-09T07:58:20.990Z,26.17
2023-02-09T08:00:49.258Z,28.30
2023-02-09T08:03:22.378Z,26.58
2023-02-09T08:06:40.957Z,28.42
2023-02-09T08:09:09.488Z,31.83
2023-02-09T08:11:40.449Z,25.52
2023-02-09T08:14:25.537Z,38.22
2023-02-09T08:17:14.923Z,37.63
2023-02-09T08:19:41.822Z,33.80
2023-02-09T08:22:08.441Z,27.55
2023-02-09T08:24:35.003Z,27.83
2023-02-09T08:27:01.603Z,28.13
2023-02-09T08:29:28.314Z,26.73
2023-02-09T08:31:54.942Z,27.60
2023-02-09T08:34:21.549Z,31.38
2023-02-09T08:36:48.127Z,25.92
2023-02-09T08:39:14.692Z,25.08
2023-02-09T08:41:41.333Z,25.27
2023-02-09T08:44:07.882Z,24.55
2023-02-09T08:46:35.571Z,28.08
2023-02-09T08:49:02.115Z,25.60
2023-02-09T08:51:28.733Z,21.77
2023-02-09T08:53:55.324Z,25.25
2023-02-09T08:56:22.662Z,23.45
2023-02-09T08:58:49.949Z,28.38
2023-02-09T09:01:16.556Z,28.38
2023-02-09T09:03:43.468Z,26.50
2023-02-09T09:06:11.999Z,23.67
2023-02-09T09:08:39.837Z,26.30
2023-02-09T09:11:07.285Z,27.58
2023-02-09T09:13:33.884Z,25.85
2023-02-09T09:16:00.438Z,27.85
2023-02-09T09:18:27.025Z,27.05
2023-02-09T09:20:55.988Z,28.30
2023-02-09T09:23:22.559Z,25.95
2023-02-09T09:25:49.222Z,23.75
2023-02-09T09:28:16.044Z,30.55
2023-02-09T09:30:42.651Z,23.85
2023-02-09T09:33:09.335Z,27.15
2023-02-09T09:35:35.959Z,33.20
2023-02-09T09:38:02.474Z,32.50
2023-02-09T09:40:32.419Z,23.38
2023-02-09T09:43:02.884Z,26.20
2023-02-09T09:45:31.854Z,27.23
2023-02-09T09:47:58.545Z,33.42
2023-02-09T09:50:29.672Z,29.65
2023-02-09T09:53:05.977Z,25.27
2023-02-09T09:55:34.321Z,23.95
2023-02-09T09:58:04.955Z,26.30
2023-02-09T10:00:42.536Z,22.20
2023-02-09T10:03:17.565Z,23.40
2023-02-09T10:05:45.466Z,23.35
2023-02-09T10:08:43.441Z,25.52
2023-02-09T10:11:20.141Z,23.48
2023-02-09T10:13:50.799Z,28.38
2023-02-09T10:16:26.549Z,18.98
2023-02-09T10:19:01.148Z,21.45
2023-02-09T10:21:30.418Z,20.95
2023-02-09T10:26:33.519Z,22.63
2023-02-09T10:31:47.165Z,27.33
2023-02-09T10:34:20.620Z,23.05
2023-02-09T10:36:55.631Z,20.48
2023-02-09T10:39:31.074Z,20.33
2023-02-09T10:42:19.297Z,26.13
2023-02-09T10:44:52.832Z,21.55
2023-02-09T10:47:19.362Z,20.90
2023-02-09T10:50:13.730Z,20.42
2023-02-09T10:53:12.409Z,21.88
2023-02-09T10:55:42.071Z,23.98
2023-02-09T10:58:11.513Z,21.73
2023-02-09T11:01:01.533Z,20.50
2023-02-09T11:03:28.907Z,22.65
2023-02-09T11:06:11.080Z,24.95
2023-02-09T11:08:47.015Z,22.55
2023-02-09T11:11:32.276Z,21.25
2023-02-09T11:13:59.718Z,21.17
2023-02-09T11:16:59.653Z,22.08
2023-02-09T11:19:52.682Z,25.77
2023-02-09T11:22:43.548Z,24.63
2023-02-09T11:25:22.558Z,21.77
2023-02-09T11:30:49.552Z,23.83
2023-02-09T11:33:16.201Z,28.00
2023-02-09T11:36:11.059Z,24.63
2023-02-09T11:38:49.464Z,24.45
2023-02-09T11:41:47.890Z,28.27
2023-02-09T11:44:39.356Z,27.55
2023-02-09T11:47:09.957Z,29.15
2023-02-09T11:49:48.953Z,27.45
2023-02-09T11:52:29.489Z,27.63
2023-02-09T11:55:01.046Z,26.33
2023-02-09T11:57:35.817Z,26.02
2023-02-09T12:00:05.069Z,24.38
2023-02-09T12:02:55.386Z,26.23
2023-02-09T12:05:23.697Z,25.67
2023-02-09T12:08:12.336Z,31.37
2023-02-09T12:10:56.734Z,29.73
2023-02-09T12:13:57.725Z,26.13
2023-02-09T12:16:41.907Z,26.83
2023-02-09T12:19:36.195Z,31.75
2023-02-09T12:22:33.864Z,28.58
2023-02-09T12:25:35.817Z,33.85
2023-02-09T12:28:08.571Z,36.67
2023-02-09T12:30:41.058Z,37.72
2023-02-09T12:33:16.370Z,32.50
2023-02-09T12:35:43.774Z,31.48
2023-02-09T12:38:19.348Z,28.05
2023-02-09T12:41:03.395Z,27.63
2023-02-09T12:43:31.984Z,28.55
2023-02-09T12:46:24.521Z,31.92
2023-02-09T12:49:22.768Z,27.58
2023-02-09T12:51:50.001Z,27.77
2023-02-09T12:54:45.304Z,27.67
2023-02-09T12:57:14.856Z,29.52
2023-02-09T12:59:50.418Z,34.92
2023-02-09T13:02:38.632Z,29.63
2023-02-09T13:05:11.567Z,28.85
2023-02-09T13:07:56.950Z,29.15
2023-02-09T13:10:51.633Z,30.55
2023-02-09T13:13:53.828Z,28.08
2023-02-09T13:16:29.128Z,29.75
2023-02-09T13:19:22.988Z,28.67
2023-02-09T13:22:19.001Z,32.72
2023-02-09T13:25:00.435Z,26.48
2023-02-09T13:27:29.439Z,27.92
2023-02-09T13:29:58.083Z,27.73
2023-02-09T13:32:54.135Z,28.88
2023-02-09T13:35:35.010Z,28.38
2023-02-09T13:38:17.549Z,30.92
2023-02-09T13:40:50.863Z,27.20
2023-02-09T13:43:33.125Z,27.75
2023-02-09T13:46:01.932Z,28.25
2023-02-09T13:48:30.338Z,29.75
2023-02-09T13:51:02.040Z,30.83
2023-02-09T13:53:30.609Z,29.95
2023-02-09T13:56:00.314Z,27.05
2023-02-09T13:58:32.945Z,29.88
2023-02-09T14:01:06.374Z,29.05
2023-02-09T14:03:57.570Z,26.77
2023-02-09T14:06:47.281Z,30.13
2023-02-09T14:11:54.508Z,27.90
2023-02-09T14:14:49.387Z,29.65
2023-02-09T14:17:38.868Z,32.53
2023-02-09T14:20:20.662Z,31.23
2023-02-09T14:22:58.996Z,30.23
2023-02-09T14:25:30.748Z,32.63
2023-02-09T14:27:58.341Z,33.75
2023-02-09T14:30:27.847Z,30.83
2023-02-09T14:32:56.400Z,30.65
2023-02-09T14:35:38.159Z,31.08
2023-02-09T14:38:04.844Z,35.63
2023-02-09T14:40:34.482Z,32.95
2023-02-09T14:43:27.445Z,30.95
2023-02-09T14:46:01.598Z,36.88
2023-02-09T14:48:30.040Z,30.88
2023-02-09T14:50:59.630Z,30.07
2023-02-09T14:53:32.843Z,36.22
2023-02-09T14:55:59.462Z,30.50
2023-02-09T14:58:31.394Z,34.25
2023-02-09T15:01:01.301Z,31.95
2023-02-09T15:03:28.382Z,33.97
2023-02-09T15:06:01.466Z,31.30
2023-02-09T15:08:31.048Z,32.30
2023-02-09T15:11:00.848Z,31.25
2023-02-09T15:13:32.540Z,37.22
2023-02-09T15:15:59.283Z,31.30
2023-02-09T15:18:26.889Z,34.47
2023-02-09T15:20:53.824Z,33.65
2023-02-09T15:23:20.452Z,31.05
2023-02-09T15:25:47.841Z,31.00
2023-02-09T15:28:30.900Z,29.92
2023-02-09T15:30:59.243Z,33.03
2023-02-09T15:33:27.189Z,32.75
2023-02-09T15:35:53.937Z,31.17
2023-02-09T15:38:20.632Z,37.28
2023-02-09T15:41:08.064Z,34.28
2023-02-09T15:43:53.976Z,34.30
2023-02-09T15:46:39.428Z,30.10
2023-02-09T15:49:07.202Z,34.80
2023-02-09T15:51:36.982Z,27.90
2023-02-09T15:54:09.304Z,31.67
2023-02-09T15:56:36.653Z,36.47
2023-02-09T15:59:05.499Z,31.05
2023-02-09T16:01:33.890Z,32.35
2023-02-09T16:04:12.893Z,35.45
2023-02-09T16:09:10.408Z,35.13
2023-02-09T16:11:40.564Z,30.35
2023-02-09T16:14:17.366Z,29.17
2023-02-09T16:16:47.125Z,30.40
2023-02-09T16:19:14.190Z,33.03
2023-02-09T16:21:47.203Z,33.88
2023-02-09T16:24:39.355Z,32.78
2023-02-09T16:27:27.861Z,32.92
2023-02-09T16:29:55.364Z,32.22
2023-02-09T16:32:23.161Z,32.15
2023-02-09T16:34:50.616Z,34.58
2023-02-09T16:37:29.045Z,33.07
2023-02-09T16:39:57.974Z,35.55
2023-02-09T16:42:25.423Z,33.30
2023-02-09T16:44:52.687Z,29.73
2023-02-09T16:47:23.059Z,32.40
2023-02-09T16:50:22.513Z,34.20
2023-02-09T16:52:50.997Z,37.60
2023-02-09T16:55:27.804Z,35.05
2023-02-09T16:57:57.072Z,32.13
2023-02-09T17:03:09.297Z,31.40
2023-02-09T17:05:37.044Z,32.30
2023-02-09T17:08:24.004Z,34.03
2023-02-09T17:10:53.537Z,41.73
2023-02-09T17:13:21.298Z,41.23
2023-02-09T17:15:50.527Z,36.50
2023-02-09T17:20:51.307Z,37.38
2023-02-09T17:23:22.848Z,50.67
2023-02-09T17:25:51.455Z,47.97
2023-02-09T17:28:19.103Z,34.73
2023-02-09T17:30:47.659Z,36.47
2023-02-09T17:33:23.722Z,39.83
2023-02-09T17:36:25.632Z,36.90
2023-02-09T17:38:42.077Z,32.90
2023-02-09T17:41:15.866Z,38.17
2023-02-09T17:43:42.872Z,33.37
2023-02-09T17:46:11.629Z,35.63
2023-02-09T17:48:38.402Z,39.08
2023-02-09T17:51:06.986Z,33.37
2023-02-09T17:53:35.292Z,35.80
2023-02-09T17:56:02.436Z,37.87
2023-02-09T17:58:29.297Z,43.03
2023-02-09T18:00:56.477Z,41.60
2023-02-09T18:03:24.623Z,37.03
2023-02-09T18:05:58.363Z,33.63
2023-02-09T18:08:27.074Z,39.93
2023-02-09T18:10:55.123Z,38.10
2023-02-09T18:13:23.342Z,33.67
2023-02-09T18:15:51.535Z,42.20
2023-02-09T18:18:18.489Z,46.17
2023-02-09T18:20:45.061Z,58.10
2023-02-09T18:23:15.860Z,44.50
2023-02-09T18:25:42.613Z,40.77
2023-02-09T18:28:09.215Z,35.60
2023-02-09T18:30:38.159Z,37.10
2023-02-09T18:33:06.186Z,38.95
2023-02-09T18:35:40.506Z,38.97
2023-02-09T18:38:09.670Z,43.17
2023-02-09T18:40:36.822Z,39.15
2023-02-09T18:43:06.044Z,43.20
2023-02-09T18:48:00.628Z,43.63
2023-02-09T18:50:30.420Z,47.03
2023-02-09T18:52:59.317Z,48.07
2023-02-09T18:55:30.804Z,54.55
2023-02-09T18:57:59.713Z,41.80
2023-02-09T19:00:26.880Z,46.33
2023-02-09T19:02:57.463Z,45.73
2023-02-09T19:05:26.258Z,50.63
2023-02-09T19:07:53.235Z,48.20
2023-02-09T19:10:20.677Z,43.67
2023-02-09T19:12:47.513Z,44.07
2023-02-09T19:15:17.075Z,40.37
2023-02-09T19:17:44.849Z,50.53
2023-02-09T19:20:16.272Z,40.77
2023-02-09T19:22:42.789Z,40.80
2023-02-09T19:25:09.633Z,42.80
2023-02-09T19:27:37.152Z,41.70
2023-02-09T19:30:04.128Z,43.17
2023-02-09T19:32:30.738Z,37.73
2023-02-09T19:34:57.364Z,39.30
2023-02-09T19:37:23.992Z,49.10
2023-02-09T19:40:00.302Z,90.40
2023-02-09T19:42:26.854Z,39.57
2023-02-09T19:44:54.031Z,38.80
2023-02-09T19:47:26.351Z,39.67
2023-02-09T19:49:57.986Z,44.10
2023-02-09T19:52:26.138Z,40.80
2023-02-09T19:54:52.886Z,43.27
2023-02-09T19:57:20.911Z,40.40
2023-02-09T19:59:48.038Z,41.93
2023-02-09T20:02:16.477Z,42.73
2023-02-09T20:04:43.955Z,40.65
2023-02-09T20:07:10.950Z,42.30
2023-02-09T20:09:37.617Z,38.27
2023-02-09T20:12:04.419Z,44.50
2023-02-09T20:14:33.040Z,39.83
2023-02-09T20:17:00.149Z,42.30
2023-02-09T20:19:27.234Z,42.87
2023-02-09T20:21:53.810Z,41.43
2023-02-09T20:24:20.340Z,41.60
2023-02-09T20:26:48.015Z,38.10
2023-02-09T20:29:16.661Z,44.90
2023-02-09T20:31:43.490Z,44.15
2023-02-09T20:34:13.257Z,43.80
2023-02-09T20:36:41.119Z,46.90
2023-02-09T20:39:16.070Z,45.43
2023-02-09T20:42:04.420Z,45.10
2023-02-09T20:44:50.016Z,36.95
2023-02-09T20:47:17.046Z,43.50
2023-02-09T20:49:44.057Z,49.23
2023-02-09T20:52:10.799Z,47.10
2023-02-09T20:54:37.649Z,53.87
2023-02-09T20:57:04.412Z,44.33
2023-02-09T20:59:31.071Z,43.70
2023-02-09T21:01:58.535Z,48.93
2023-02-09T21:04:29.936Z,47.90
2023-02-09T21:06:58.000Z,42.03
2023-02-09T21:09:26.486Z,49.97
2023-02-09T21:11:53.764Z,39.97
2023-02-09T21:14:27.747Z,44.17
2023-02-09T21:16:59.318Z,46.50
2023-02-09T21:19:25.896Z,54.97
2023-02-09T21:21:52.642Z,43.10
2023-02-09T21:24:19.520Z,41.07
2023-02-09T21:26:46.536Z,43.60
2023-02-09T21:29:13.907Z,47.30
2023-02-09T21:31:40.678Z,66.07
2023-02-09T21:34:07.755Z,59.43
2023-02-09T21:36:34.824Z,60.37
2023-02-09T21:39:01.376Z,52.83
2023-02-09T21:41:46.709Z,61.37
2023-02-09T21:44:14.941Z,65.00
2023-02-09T21:46:42.086Z,38.50
2023-02-09T21:49:10.094Z,51.00
2023-02-09T21:51:36.704Z,48.87
2023-02-09T21:54:03.322Z,58.30
2023-02-09T21:56:29.822Z,55.47
2023-02-09T21:58:56.412Z,53.80
2023-02-09T22:01:23.051Z,49.53
2023-02-09T22:03:52.609Z,52.23
2023-02-09T22:06:19.161Z,57.93
2023-02-09T22:08:45.674Z,53.07
2023-02-09T22:11:12.268Z,63.10
2023-02-09T22:13:38.820Z,53.43
2023-02-09T22:16:08.528Z,58.83
2023-02-09T22:18:36.110Z,51.23
2023-02-09T22:21:07.349Z,56.17
2023-02-09T22:23:34.195Z,49.17
2023-02-09T22:26:02.187Z,47.13
2023-02-09T22:28:29.307Z,55.80
2023-02-09T22:30:56.527Z,52.30
2023-02-09T22:33:23.802Z,51.63
2023-02-09T22:35:50.304Z,48.23
2023-02-09T22:38:16.952Z,49.97
2023-02-09T22:40:43.455Z,49.77
2023-02-09T22:43:10.065Z,53.50
2023-02-09T22:45:36.720Z,47.87
2023-02-09T22:48:03.361Z,47.13
2023-02-09T22:50:29.898Z,54.43
2023-02-09T22:52:56.417Z,47.50
2023-02-09T22:55:23.086Z,47.57
2023-02-09T22:57:49.865Z,46.43
2023-02-09T23:00:16.916Z,48.43
2023-02-09T23:02:43.593Z,58.87
2023-02-09T23:05:10.434Z,50.40
2023-02-09T23:07:36.922Z,55.70
2023-02-09T23:10:03.534Z,60.17
2023-02-09T23:12:30.146Z,52.20
2023-02-09T23:14:56.894Z,52.07
2023-02-09T23:17:23.398Z,50.33
2023-02-09T23:19:49.906Z,54.47
2023-02-09T23:22:16.462Z,48.97
2023-02-09T23:24:43.111Z,55.23
2023-02-09T23:27:09.697Z,47.67
2023-02-09T23:29:36.214Z,51.53
2023-02-09T23:32:02.722Z,49.57
2023-02-09T23:34:29.393Z,50.03
2023-02-09T23:36:57.355Z,56.53
2023-02-09T23:39:28.534Z,50.13
2023-02-09T23:41:55.192Z,57.35
2023-02-09T23:44:21.737Z,54.23
2023-02-09T23:46:48.269Z,51.93
2023-02-09T23:49:14.842Z,51.10
2023-02-09T23:51:41.532Z,55.13
2023-02-09T23:54:08.261Z,45.93
2023-02-09T23:56:37.142Z,46.53
2023-02-09T23:59:06.313Z,50.15
